sensor_id;sensor_type;location;lat;lon;timestamp;pressure;altitude;pressure_sealevel;temperature;humidity
40574;BME280;26283;49.020;8.644;2024-03-22T00:02:15;99979.00;;;16.26;58.25
40574;BME280;26283;49.020;8.644;2024-03-22T00:04:40;99980.06;;;16.25;58.20
40574;BME280;26283;49.020;8.644;2024-03-22T00:07:06;99980.06;;;16.25;58.17
40574;BME280;26283;49.020;8.644;2024-03-22T00:09:31;99989.56;;;16.23;58.18
40574;BME280;26283;49.020;8.644;2024-03-22T00:11:57;99983.31;;;16.22;58.15
40574;BME280;26283;49.020;8.644;2024-03-22T00:14:23;99988.75;;;16.22;58.15
40574;BME280;26283;49.020;8.644;2024-03-22T00:16:48;99975.38;;;16.21;58.12
40574;BME280;26283;49.020;8.644;2024-03-22T00:19:14;99971.00;;;16.20;58.12
40574;BME280;26283;49.020;8.644;2024-03-22T00:21:39;99969.34;;;16.19;58.06
40574;BME280;26283;49.020;8.644;2024-03-22T00:24:04;99968.50;;;16.18;58.00
40574;BME280;26283;49.020;8.644;2024-03-22T00:26:30;99962.47;;;16.16;57.87
40574;BME280;26283;49.020;8.644;2024-03-22T00:28:56;99958.09;;;16.15;57.87
40574;BME280;26283;49.020;8.644;2024-03-22T00:31:23;99957.28;;;16.15;57.88
40574;BME280;26283;49.020;8.644;2024-03-22T00:33:49;99943.94;;;16.13;57.88
40574;BME280;26283;49.020;8.644;2024-03-22T00:36:14;99949.38;;;16.13;57.89
40574;BME280;26283;49.020;8.644;2024-03-22T00:38:39;99953.16;;;16.12;57.87
40574;BME280;26283;49.020;8.644;2024-03-22T00:41:05;99949.59;;;16.11;57.88
40574;BME280;26283;49.020;8.644;2024-03-22T00:43:30;99940.84;;;16.09;57.85
40574;BME280;26283;49.020;8.644;2024-03-22T00:45:55;99945.47;;;16.09;57.81
40574;BME280;26283;49.020;8.644;2024-03-22T00:48:21;99946.28;;;16.09;57.82
40574;BME280;26283;49.020;8.644;2024-03-22T00:50:46;99928.56;;;16.07;57.80
40574;BME280;26283;49.020;8.644;2024-03-22T00:53:12;99928.56;;;16.07;57.74
40574;BME280;26283;49.020;8.644;2024-03-22T00:55:38;99928.78;;;16.05;57.73
40574;BME280;26283;49.020;8.644;2024-03-22T00:58:03;99928.78;;;16.05;57.78
40574;BME280;26283;49.020;8.644;2024-03-22T01:00:29;99923.59;;;16.04;57.73
40574;BME280;26283;49.020;8.644;2024-03-22T01:02:54;99929.03;;;16.04;57.70
40574;BME280;26283;49.020;8.644;2024-03-22T01:05:19;99918.38;;;16.02;57.67
40574;BME280;26283;49.020;8.644;2024-03-22T01:07:45;99924.91;;;16.01;57.65
40574;BME280;26283;49.020;8.644;2024-03-22T01:10:11;99917.81;;;16.00;57.66
40574;BME280;26283;49.020;8.644;2024-03-22T01:12:37;99916.16;;;15.99;57.68
40574;BME280;26283;49.020;8.644;2024-03-22T01:15:04;99908.25;;;15.98;57.70
40574;BME280;26283;49.020;8.644;2024-03-22T01:17:30;99912.88;;;15.97;57.67
40574;BME280;26283;49.020;8.644;2024-03-22T01:19:55;99904.72;;;15.97;57.65
40574;BME280;26283;49.020;8.644;2024-03-22T01:22:20;99901.16;;;15.97;57.60
40574;BME280;26283;49.020;8.644;2024-03-22T01:24:46;99895.97;;;15.95;57.59
40574;BME280;26283;49.020;8.644;2024-03-22T01:27:11;99895.13;;;15.95;57.61
40574;BME280;26283;49.020;8.644;2024-03-22T01:29:37;99904.34;;;15.94;57.62
40574;BME280;26283;49.020;8.644;2024-03-22T01:32:03;99896.44;;;15.92;57.61
40574;BME280;26283;49.020;8.644;2024-03-22T01:34:28;99894.53;;;15.93;57.59
40574;BME280;26283;49.020;8.644;2024-03-22T01:36:53;99884.13;;;15.90;57.55
40574;BME280;26283;49.020;8.644;2024-03-22T01:39:20;99885.78;;;15.91;57.49
40574;BME280;26283;49.020;8.644;2024-03-22T01:41:49;99883.31;;;15.89;57.53
40574;BME280;26283;49.020;8.644;2024-03-22T01:44:14;99874.31;;;15.89;57.51
40574;BME280;26283;49.020;8.644;2024-03-22T01:46:40;99882.47;;;15.89;57.47
40574;BME280;26283;49.020;8.644;2024-03-22T01:49:11;99884.59;;;15.87;57.45
40574;BME280;26283;49.020;8.644;2024-03-22T01:51:40;99875.88;;;15.85;57.42
40574;BME280;26283;49.020;8.644;2024-03-22T01:54:08;99873.16;;;15.85;57.34
40574;BME280;26283;49.020;8.644;2024-03-22T01:56:37;99872.31;;;15.84;57.42
40574;BME280;26283;49.020;8.644;2024-03-22T01:59:03;99871.50;;;15.84;57.41
40574;BME280;26283;49.020;8.644;2024-03-22T02:01:29;99866.28;;;15.82;57.36
40574;BME280;26283;49.020;8.644;2024-03-22T02:03:54;99865.47;;;15.82;57.35
40574;BME280;26283;49.020;8.644;2024-03-22T02:06:20;99856.75;;;15.80;57.35
40574;BME280;26283;49.020;8.644;2024-03-22T02:08:45;99862.19;;;15.80;57.30
40574;BME280;26283;49.020;8.644;2024-03-22T02:11:11;99871.41;;;15.79;57.35
40574;BME280;26283;49.020;8.644;2024-03-22T02:13:36;99863.47;;;15.77;57.39
40574;BME280;26283;49.020;8.644;2024-03-22T02:16:05;99858.06;;;15.77;57.40
40574;BME280;26283;49.020;8.644;2024-03-22T02:18:30;99852.84;;;15.75;57.46
40574;BME280;26283;49.020;8.644;2024-03-22T02:20:58;99853.09;;;15.74;57.46
40574;BME280;26283;49.020;8.644;2024-03-22T02:23:37;99851.44;;;15.73;57.49
40574;BME280;26283;49.020;8.644;2024-03-22T02:26:03;99852.50;;;15.72;57.54
40574;BME280;26283;49.020;8.644;2024-03-22T02:28:29;99859.81;;;15.71;57.38
40574;BME280;26283;49.020;8.644;2024-03-22T02:30:55;99854.63;;;15.70;57.42
40574;BME280;26283;49.020;8.644;2024-03-22T02:33:20;99852.97;;;15.69;57.44
40574;BME280;26283;49.020;8.644;2024-03-22T02:35:47;99854.84;;;15.68;57.49
40574;BME280;26283;49.020;8.644;2024-03-22T02:38:12;99850.47;;;15.67;57.47
40574;BME280;26283;49.020;8.644;2024-03-22T02:40:38;99851.31;;;15.68;57.41
40574;BME280;26283;49.020;8.644;2024-03-22T02:43:03;99850.72;;;15.66;57.37
40574;BME280;26283;49.020;8.644;2024-03-22T02:45:30;99849.06;;;15.65;57.40
40574;BME280;26283;49.020;8.644;2024-03-22T02:47:56;99843.63;;;15.65;57.47
40574;BME280;26283;49.020;8.644;2024-03-22T02:50:21;99838.44;;;15.63;57.45
40574;BME280;26283;49.020;8.644;2024-03-22T02:52:48;99841.37;;;15.62;57.43
40574;BME280;26283;49.020;8.644;2024-03-22T02:55:14;99834.06;;;15.62;57.53
40574;BME280;26283;49.020;8.644;2024-03-22T02:57:39;99837.00;;;15.61;57.43
40574;BME280;26283;49.020;8.644;2024-03-22T03:00:05;99830.75;;;15.60;57.51
40574;BME280;26283;49.020;8.644;2024-03-22T03:02:30;99828.03;;;15.60;57.55
40574;BME280;26283;49.020;8.644;2024-03-22T03:04:56;99819.31;;;15.58;57.56
40574;BME280;26283;49.020;8.644;2024-03-22T03:07:23;99818.50;;;15.58;57.53
40574;BME280;26283;49.020;8.644;2024-03-22T03:09:48;99827.72;;;15.57;57.61
40574;BME280;26283;49.020;8.644;2024-03-22T03:12:14;99818.72;;;15.56;57.63
40574;BME280;26283;49.020;8.644;2024-03-22T03:14:39;99825.19;;;15.55;57.61
40574;BME280;26283;49.020;8.644;2024-03-22T03:17:05;99820.81;;;15.54;57.62
40574;BME280;26283;49.020;8.644;2024-03-22T03:19:30;99824.59;;;15.53;57.64
40574;BME280;26283;49.020;8.644;2024-03-22T03:21:55;99817.53;;;15.52;57.62
40574;BME280;26283;49.020;8.644;2024-03-22T03:24:21;99826.72;;;15.51;57.64
40574;BME280;26283;49.020;8.644;2024-03-22T03:26:46;99825.91;;;15.51;57.67
40574;BME280;26283;49.020;8.644;2024-03-22T03:29:11;99830.50;;;15.50;57.65
40574;BME280;26283;49.020;8.644;2024-03-22T03:31:37;99827.19;;;15.48;57.62
40574;BME280;26283;49.020;8.644;2024-03-22T03:34:02;99827.19;;;15.48;57.68
40574;BME280;26283;49.020;8.644;2024-03-22T03:36:28;99825.53;;;15.47;57.70
40574;BME280;26283;49.020;8.644;2024-03-22T03:38:53;99822.00;;;15.47;57.76
40574;BME280;26283;49.020;8.644;2024-03-22T03:41:18;99818.47;;;15.46;57.73
40574;BME280;26283;49.020;8.644;2024-03-22T03:43:44;99810.31;;;15.46;57.74
40574;BME280;26283;49.020;8.644;2024-03-22T03:46:09;99807.81;;;15.44;57.73
40574;BME280;26283;49.020;8.644;2024-03-22T03:48:34;99808.88;;;15.43;57.73
40574;BME280;26283;49.020;8.644;2024-03-22T03:51:00;99808.06;;;15.43;57.74
40574;BME280;26283;49.020;8.644;2024-03-22T03:53:30;99807.25;;;15.42;57.80
40574;BME280;26283;49.020;8.644;2024-03-22T03:55:56;99806.41;;;15.42;57.84
40574;BME280;26283;49.020;8.644;2024-03-22T03:58:21;99804.75;;;15.41;57.80
40574;BME280;26283;49.020;8.644;2024-03-22T04:00:46;99797.66;;;15.40;57.79
40574;BME280;26283;49.020;8.644;2024-03-22T04:03:12;99800.38;;;15.40;57.78
40574;BME280;26283;49.020;8.644;2024-03-22T04:05:37;99797.66;;;15.40;57.79
40574;BME280;26283;49.020;8.644;2024-03-22T04:08:03;99794.34;;;15.38;57.79
40574;BME280;26283;49.020;8.644;2024-03-22T04:10:28;99798.16;;;15.37;57.82
40574;BME280;26283;49.020;8.644;2024-03-22T04:12:54;99791.09;;;15.36;57.88
40574;BME280;26283;49.020;8.644;2024-03-22T04:15:19;99801.94;;;15.36;57.86
40574;BME280;26283;49.020;8.644;2024-03-22T04:17:44;99800.28;;;15.35;57.87
40574;BME280;26283;49.020;8.644;2024-03-22T04:20:10;99804.91;;;15.34;57.89
40574;BME280;26283;49.020;8.644;2024-03-22T04:22:36;99800.53;;;15.33;57.93
40574;BME280;26283;49.020;8.644;2024-03-22T04:25:02;99807.84;;;15.33;57.86
40574;BME280;26283;49.020;8.644;2024-03-22T04:27:27;99809.72;;;15.32;57.84
40574;BME280;26283;49.020;8.644;2024-03-22T04:29:53;99812.44;;;15.32;57.79
40574;BME280;26283;49.020;8.644;2024-03-22T04:32:18;99813.50;;;15.31;57.84
40574;BME280;26283;49.020;8.644;2024-03-22T04:34:44;99808.09;;;15.31;57.84
40574;BME280;26283;49.020;8.644;2024-03-22T04:37:09;99813.75;;;15.30;57.84
40574;BME280;26283;49.020;8.644;2024-03-22T04:39:37;99811.25;;;15.28;57.81
40574;BME280;26283;49.020;8.644;2024-03-22T04:42:02;99804.78;;;15.29;57.82
40574;BME280;26283;49.020;8.644;2024-03-22T04:44:28;99804.19;;;15.27;57.86
40574;BME280;26283;49.020;8.644;2024-03-22T04:46:54;99804.19;;;15.27;57.75
40574;BME280;26283;49.020;8.644;2024-03-22T04:49:19;99815.03;;;15.27;57.79
40574;BME280;26283;49.020;8.644;2024-03-22T04:51:44;99805.25;;;15.26;57.77
40574;BME280;26283;49.020;8.644;2024-03-22T04:54:10;99805.47;;;15.25;57.77
40574;BME280;26283;49.020;8.644;2024-03-22T04:56:35;99804.66;;;15.24;57.72
40574;BME280;26283;49.020;8.644;2024-03-22T04:59:00;99803.81;;;15.24;57.66
40574;BME280;26283;49.020;8.644;2024-03-22T05:01:26;99802.16;;;15.23;57.70
40574;BME280;26283;49.020;8.644;2024-03-22T05:03:51;99795.06;;;15.22;57.74
40574;BME280;26283;49.020;8.644;2024-03-22T05:06:17;99799.44;;;15.23;57.74
40574;BME280;26283;49.020;8.644;2024-03-22T05:08:42;99795.31;;;15.20;57.74
40574;BME280;26283;49.020;8.644;2024-03-22T05:11:08;99794.47;;;15.20;57.76
40574;BME280;26283;49.020;8.644;2024-03-22T05:13:33;99791.78;;;15.20;57.75
40574;BME280;26283;49.020;8.644;2024-03-22T05:15:59;99788.47;;;15.18;57.73
40574;BME280;26283;49.020;8.644;2024-03-22T05:18:24;99785.75;;;15.18;57.74
40574;BME280;26283;49.020;8.644;2024-03-22T05:20:49;99785.16;;;15.16;57.75
40574;BME280;26283;49.020;8.644;2024-03-22T05:23:15;99775.94;;;15.17;57.74
40574;BME280;26283;49.020;8.644;2024-03-22T05:25:42;99777.00;;;15.16;57.75
40574;BME280;26283;49.020;8.644;2024-03-22T05:28:07;99778.09;;;15.15;57.80
40574;BME280;26283;49.020;8.644;2024-03-22T05:30:33;99771.03;;;15.14;57.79
40574;BME280;26283;49.020;8.644;2024-03-22T05:32:58;99771.03;;;15.14;57.81
40574;BME280;26283;49.020;8.644;2024-03-22T05:35:24;99766.66;;;15.13;57.78
40574;BME280;26283;49.020;8.644;2024-03-22T05:37:49;99774.78;;;15.13;57.80
40574;BME280;26283;49.020;8.644;2024-03-22T05:40:16;99764.16;;;15.11;57.83
40574;BME280;26283;49.020;8.644;2024-03-22T05:42:42;99757.09;;;15.10;57.87
40574;BME280;26283;49.020;8.644;2024-03-22T05:45:08;99761.69;;;15.09;57.87
40574;BME280;26283;49.020;8.644;2024-03-22T05:47:34;99757.09;;;15.10;57.88
40574;BME280;26283;49.020;8.644;2024-03-22T05:50:00;99764.41;;;15.09;57.90
40574;BME280;26283;49.020;8.644;2024-03-22T05:52:26;99762.75;;;15.08;57.87
40574;BME280;26283;49.020;8.644;2024-03-22T05:54:51;99773.59;;;15.08;57.83
40574;BME280;26283;49.020;8.644;2024-03-22T05:57:17;99766.53;;;15.07;57.91
40574;BME280;26283;49.020;8.644;2024-03-22T05:59:42;99756.72;;;15.06;57.87
40574;BME280;26283;49.020;8.644;2024-03-22T06:02:08;99759.44;;;15.06;57.90
40574;BME280;26283;49.020;8.644;2024-03-22T06:04:33;99760.50;;;15.05;57.93
40574;BME280;26283;49.020;8.644;2024-03-22T06:06:59;99767.81;;;15.05;57.97
40574;BME280;26283;49.020;8.644;2024-03-22T06:09:29;99762.63;;;15.03;57.99
40574;BME280;26283;49.020;8.644;2024-03-22T06:12:03;99765.34;;;15.03;58.07
40574;BME280;26283;49.020;8.644;2024-03-22T06:14:29;99758.25;;;15.02;58.01
40574;BME280;26283;49.020;8.644;2024-03-22T06:16:54;99763.69;;;15.02;58.09
40574;BME280;26283;49.020;8.644;2024-03-22T06:19:20;99756.59;;;15.01;58.14
40574;BME280;26283;49.020;8.644;2024-03-22T06:21:45;99760.38;;;15.00;58.19
40574;BME280;26283;49.020;8.644;2024-03-22T06:24:10;99751.41;;;15.00;58.27
40574;BME280;26283;49.020;8.644;2024-03-22T06:26:36;99752.47;;;14.99;58.34
40574;BME280;26283;49.020;8.644;2024-03-22T06:29:01;99755.41;;;14.97;58.40
40574;BME280;26283;49.020;8.644;2024-03-22T06:31:27;99748.91;;;14.98;58.48
40574;BME280;26283;49.020;8.644;2024-03-22T06:33:52;99753.53;;;14.98;58.57
40574;BME280;26283;49.020;8.644;2024-03-22T06:36:18;99749.16;;;14.97;58.62
40574;BME280;26283;49.020;8.644;2024-03-22T06:38:44;99742.06;;;14.96;58.71
40574;BME280;26283;49.020;8.644;2024-03-22T06:41:09;99742.91;;;14.96;58.85
40574;BME280;26283;49.020;8.644;2024-03-22T06:43:34;99738.53;;;14.95;58.87
40574;BME280;26283;49.020;8.644;2024-03-22T06:46:00;99760.25;;;14.95;58.78
40574;BME280;26283;49.020;8.644;2024-03-22T06:48:25;99759.41;;;14.95;59.29
40574;BME280;26283;49.020;8.644;2024-03-22T06:50:50;99753.16;;;14.94;59.35
40574;BME280;26283;49.020;8.644;2024-03-22T06:53:16;99746.94;;;14.94;59.37
40574;BME280;26283;49.020;8.644;2024-03-22T06:55:41;99745.03;;;14.94;59.45
40574;BME280;26283;49.020;8.644;2024-03-22T06:58:06;99749.66;;;14.94;59.46
40574;BME280;26283;49.020;8.644;2024-03-22T07:00:32;99736.88;;;14.94;59.55
40574;BME280;26283;49.020;8.644;2024-03-22T07:03:00;99742.31;;;14.94;59.59
40574;BME280;26283;49.020;8.644;2024-03-22T07:05:27;99739.59;;;14.94;59.63
40574;BME280;26283;49.020;8.644;2024-03-22T07:07:53;99737.97;;;14.93;59.68
40574;BME280;26283;49.020;8.644;2024-03-22T07:10:21;99742.31;;;14.94;59.72
40574;BME280;26283;49.020;8.644;2024-03-22T07:12:47;99738.81;;;14.94;59.75
40574;BME280;26283;49.020;8.644;2024-03-22T07:15:13;99737.16;;;14.93;59.79
40574;BME280;26283;49.020;8.644;2024-03-22T07:17:38;99735.25;;;14.93;59.83
40574;BME280;26283;49.020;8.644;2024-03-22T07:20:04;99738.81;;;14.94;59.85
40574;BME280;26283;49.020;8.644;2024-03-22T07:22:30;99734.16;;;14.94;59.88
40574;BME280;26283;49.020;8.644;2024-03-22T07:24:55;99739.59;;;14.94;59.90
40574;BME280;26283;49.020;8.644;2024-03-22T07:27:20;99736.88;;;14.94;59.92
40574;BME280;26283;49.020;8.644;2024-03-22T07:29:46;99730.38;;;14.95;59.95
40574;BME280;26283;49.020;8.644;2024-03-22T07:32:11;99735.81;;;14.95;59.97
40574;BME280;26283;49.020;8.644;2024-03-22T07:34:36;99735.00;;;14.95;59.97
40574;BME280;26283;49.020;8.644;2024-03-22T07:37:02;99739.34;;;14.96;59.99
40574;BME280;26283;49.020;8.644;2024-03-22T07:39:29;99735.59;;;14.97;60.01
40574;BME280;26283;49.020;8.644;2024-03-22T07:41:54;99728.28;;;14.97;60.01
40574;BME280;26283;49.020;8.644;2024-03-22T07:44:20;99728.28;;;14.97;60.02
40574;BME280;26283;49.020;8.644;2024-03-22T07:46:46;99720.13;;;14.97;60.03
40574;BME280;26283;49.020;8.644;2024-03-22T07:49:14;99723.44;;;14.99;60.04
40574;BME280;26283;49.020;8.644;2024-03-22T07:51:40;99716.94;;;15.00;60.04
40574;BME280;26283;49.020;8.644;2024-03-22T07:54:05;99716.12;;;15.00;60.05
40574;BME280;26283;49.020;8.644;2024-03-22T07:56:31;99718.59;;;15.01;60.08
40574;BME280;26283;49.020;8.644;2024-03-22T07:58:56;99715.88;;;15.01;60.08
40574;BME280;26283;49.020;8.644;2024-03-22T08:01:22;99716.47;;;15.03;60.08
40574;BME280;26283;49.020;8.644;2024-03-22T08:03:48;99706.44;;;15.04;60.11
40574;BME280;26283;49.020;8.644;2024-03-22T08:06:14;99705.38;;;15.05;60.11
40574;BME280;26283;49.020;8.644;2024-03-22T08:08:39;99704.31;;;15.06;60.11
40574;BME280;26283;49.020;8.644;2024-03-22T08:11:04;99700.56;;;15.07;60.12
40574;BME280;26283;49.020;8.644;2024-03-22T08:13:30;99700.31;;;15.08;60.13
40574;BME280;26283;49.020;8.644;2024-03-22T08:15:55;99701.13;;;15.09;60.13
40574;BME280;26283;49.020;8.644;2024-03-22T08:18:21;99692.75;;;15.11;60.14
40574;BME280;26283;49.020;8.644;2024-03-22T08:20:46;99689.00;;;15.12;60.15
40574;BME280;26283;49.020;8.644;2024-03-22T08:23:11;99687.09;;;15.12;60.16
40574;BME280;26283;49.020;8.644;2024-03-22T08:25:38;99696.66;;;15.15;60.17
40574;BME280;26283;49.020;8.644;2024-03-22T08:28:03;99694.50;;;15.17;60.17
40574;BME280;26283;49.020;8.644;2024-03-22T08:30:29;99688.25;;;15.16;60.17
40574;BME280;26283;49.020;8.644;2024-03-22T08:32:54;99691.56;;;15.18;60.20
40574;BME280;26283;49.020;8.644;2024-03-22T08:35:20;99687.78;;;15.19;60.22
40574;BME280;26283;49.020;8.644;2024-03-22T08:37:45;99683.75;;;15.22;60.25
40574;BME280;26283;49.020;8.644;2024-03-22T08:40:11;99685.41;;;15.23;60.27
40574;BME280;26283;49.020;8.644;2024-03-22T08:42:37;99674.31;;;15.24;60.28
40574;BME280;26283;49.020;8.644;2024-03-22T08:45:04;99678.44;;;15.27;60.31
40574;BME280;26283;49.020;8.644;2024-03-22T08:47:30;99672.78;;;15.28;60.31
40574;BME280;26283;49.020;8.644;2024-03-22T08:49:55;99679.63;;;15.31;60.31
40574;BME280;26283;49.020;8.644;2024-03-22T08:52:23;99673.13;;;15.32;60.30
40574;BME280;26283;49.020;8.644;2024-03-22T08:54:50;99673.72;;;15.34;60.30
40574;BME280;26283;49.020;8.644;2024-03-22T08:57:15;99666.16;;;15.36;60.28
40574;BME280;26283;49.020;8.644;2024-03-22T08:59:40;99667.31;;;15.40;60.27
40574;BME280;26283;49.020;8.644;2024-03-22T09:02:06;99658.94;;;15.41;60.25
40574;BME280;26283;49.020;8.644;2024-03-22T09:04:31;99655.16;;;15.42;60.23
40574;BME280;26283;49.020;8.644;2024-03-22T09:06:56;99648.41;;;15.45;60.19
40574;BME280;26283;49.020;8.644;2024-03-22T09:09:23;99652.53;;;15.48;60.19
40574;BME280;26283;49.020;8.644;2024-03-22T09:11:48;99652.06;;;15.51;60.24
40574;BME280;26283;49.020;8.644;2024-03-22T09:14:14;99656.19;;;15.53;60.32
40574;BME280;26283;49.020;8.644;2024-03-22T09:16:39;99643.19;;;15.55;60.32
40574;BME280;26283;49.020;8.644;2024-03-22T09:19:05;99646.53;;;15.57;60.42
40574;BME280;26283;49.020;8.644;2024-03-22T09:21:31;99647.91;;;15.60;60.45
40574;BME280;26283;49.020;8.644;2024-03-22T09:23:57;99641.16;;;15.62;60.44
40574;BME280;26283;49.020;8.644;2024-03-22T09:26:22;99639.88;;;15.65;60.36
40574;BME280;26283;49.020;8.644;2024-03-22T09:28:48;99634.19;;;15.66;60.22
40574;BME280;26283;49.020;8.644;2024-03-22T09:31:15;99641.03;;;15.69;60.07
40574;BME280;26283;49.020;8.644;2024-03-22T09:33:41;99638.91;;;15.71;59.90
40574;BME280;26283;49.020;8.644;2024-03-22T09:36:07;99626.72;;;15.73;59.75
40574;BME280;26283;49.020;8.644;2024-03-22T09:38:33;99621.88;;;15.75;59.63
40574;BME280;26283;49.020;8.644;2024-03-22T09:40:58;99615.13;;;15.78;59.50
40574;BME280;26283;49.020;8.644;2024-03-22T09:43:26;99619.22;;;15.81;59.39
40574;BME280;26283;49.020;8.644;2024-03-22T09:45:52;99619.56;;;15.84;59.28
40574;BME280;26283;49.020;8.644;2024-03-22T09:48:19;99622.88;;;15.86;59.18
40574;BME280;26283;49.020;8.644;2024-03-22T09:50:48;99616.12;;;15.89;59.07
40574;BME280;26283;49.020;8.644;2024-03-22T09:53:18;99612.94;;;15.92;58.95
40574;BME280;26283;49.020;8.644;2024-03-22T09:55:45;99608.91;;;15.94;58.86
40574;BME280;26283;49.020;8.644;2024-03-22T09:58:10;99608.41;;;15.97;58.76
40574;BME280;26283;49.020;8.644;2024-03-22T10:00:36;99604.37;;;16.00;58.68
40574;BME280;26283;49.020;8.644;2024-03-22T10:03:03;99593.25;;;16.01;58.57
40574;BME280;26283;49.020;8.644;2024-03-22T10:05:29;99600.91;;;16.04;58.45
40574;BME280;26283;49.020;8.644;2024-03-22T10:07:55;99595.81;;;16.08;58.28
40574;BME280;26283;49.020;8.644;2024-03-22T10:10:20;99591.53;;;16.12;57.88
40574;BME280;26283;49.020;8.644;2024-03-22T10:12:46;99591.63;;;16.17;57.70
40574;BME280;26283;49.020;8.644;2024-03-22T10:15:11;99583.53;;;16.22;57.46
40574;BME280;26283;49.020;8.644;2024-03-22T10:17:38;99583.59;;;16.27;57.28
40574;BME280;26283;49.020;8.644;2024-03-22T10:20:05;99584.50;;;16.33;57.13
40574;BME280;26283;49.020;8.644;2024-03-22T10:22:34;99587.56;;;16.36;57.01
40574;BME280;26283;49.020;8.644;2024-03-22T10:25:00;99582.72;;;16.38;57.07
40574;BME280;26283;49.020;8.644;2024-03-22T10:27:27;99575.13;;;16.40;57.02
40574;BME280;26283;49.020;8.644;2024-03-22T10:29:53;99577.84;;;16.40;56.97
40574;BME280;26283;49.020;8.644;2024-03-22T10:32:19;99568.38;;;16.43;56.90
40574;BME280;26283;49.020;8.644;2024-03-22T10:34:45;99563.75;;;16.43;56.84
40574;BME280;26283;49.020;8.644;2024-03-22T10:37:13;99564.56;;;16.44;56.76
40574;BME280;26283;49.020;8.644;2024-03-22T10:39:40;99565.41;;;16.44;56.69
40574;BME280;26283;49.020;8.644;2024-03-22T10:42:06;99556.12;;;16.45;56.65
40574;BME280;26283;49.020;8.644;2024-03-22T10:44:31;99542.88;;;16.49;56.61
40574;BME280;26283;49.020;8.644;2024-03-22T10:47:00;99545.56;;;16.49;56.57
40574;BME280;26283;49.020;8.644;2024-03-22T10:49:28;99543.44;;;16.51;56.55
40574;BME280;26283;49.020;8.644;2024-03-22T10:51:58;99544.25;;;16.52;56.51
40574;BME280;26283;49.020;8.644;2024-03-22T10:54:28;99539.41;;;16.54;56.48
40574;BME280;26283;49.020;8.644;2024-03-22T10:56:56;99533.72;;;16.55;56.43
40574;BME280;26283;49.020;8.644;2024-03-22T10:59:22;99535.34;;;16.56;56.39
40574;BME280;26283;49.020;8.644;2024-03-22T11:01:49;99526.94;;;16.58;56.38
40574;BME280;26283;49.020;8.644;2024-03-22T11:04:19;99520.44;;;16.59;56.34
40574;BME280;26283;49.020;8.644;2024-03-22T11:06:48;99521.00;;;16.61;56.30
40574;BME280;26283;49.020;8.644;2024-03-22T11:09:26;99519.94;;;16.62;56.28
40574;BME280;26283;49.020;8.644;2024-03-22T11:11:53;99510.69;;;16.63;56.22
40574;BME280;26283;49.020;8.644;2024-03-22T11:14:19;99506.94;;;16.64;56.19
40574;BME280;26283;49.020;8.644;2024-03-22T11:16:49;99505.84;;;16.65;56.19
40574;BME280;26283;49.020;8.644;2024-03-22T11:19:15;99502.06;;;16.66;56.14
40574;BME280;26283;49.020;8.644;2024-03-22T11:21:41;99497.44;;;16.66;56.11
40574;BME280;26283;49.020;8.644;2024-03-22T11:24:06;99499.06;;;16.67;56.10
40574;BME280;26283;49.020;8.644;2024-03-22T11:26:35;99489.56;;;16.70;56.09
40574;BME280;26283;49.020;8.644;2024-03-22T11:29:01;99483.06;;;16.71;56.05
40574;BME280;26283;49.020;8.644;2024-03-22T11:31:27;99480.09;;;16.72;56.04
40574;BME280;26283;49.020;8.644;2024-03-22T11:33:53;99469.19;;;16.72;56.04
40574;BME280;26283;49.020;8.644;2024-03-22T11:36:19;99460.78;;;16.74;55.97
40574;BME280;26283;49.020;8.644;2024-03-22T11:38:44;99459.72;;;16.75;55.97
40574;BME280;26283;49.020;8.644;2024-03-22T11:41:10;99458.63;;;16.76;55.96
40574;BME280;26283;49.020;8.644;2024-03-22T11:43:36;99446.66;;;16.77;55.94
40574;BME280;26283;49.020;8.644;2024-03-22T11:46:02;99444.78;;;16.77;55.90
40574;BME280;26283;49.020;8.644;2024-03-22T11:48:28;99444.53;;;16.79;55.86
40574;BME280;26283;49.020;8.644;2024-03-22T11:50:54;99441.78;;;16.79;55.86
40574;BME280;26283;49.020;8.644;2024-03-22T11:53:21;99431.72;;;16.79;55.83
40574;BME280;26283;49.020;8.644;2024-03-22T11:55:49;99427.69;;;16.82;55.83
40574;BME280;26283;49.020;8.644;2024-03-22T11:58:14;99430.41;;;16.82;55.85
40574;BME280;26283;49.020;8.644;2024-03-22T12:00:42;99420.34;;;16.83;55.82
40574;BME280;26283;49.020;8.644;2024-03-22T12:03:07;99423.63;;;16.85;55.80
40574;BME280;26283;49.020;8.644;2024-03-22T12:05:32;99426.09;;;16.86;55.75
40574;BME280;26283;49.020;8.644;2024-03-22T12:07:59;99407.88;;;16.87;55.39
40574;BME280;26283;49.020;8.644;2024-03-22T12:10:24;99409.22;;;16.89;55.29
40574;BME280;26283;49.020;8.644;2024-03-22T12:12:50;99410.88;;;16.90;55.22
40574;BME280;26283;49.020;8.644;2024-03-22T12:15:15;99402.72;;;16.90;55.18
40574;BME280;26283;49.020;8.644;2024-03-22T12:17:40;99397.84;;;16.92;55.22
40574;BME280;26283;49.020;8.644;2024-03-22T12:20:08;99390.50;;;16.93;55.26
40574;BME280;26283;49.020;8.644;2024-03-22T12:22:34;99392.13;;;16.94;55.27
40574;BME280;26283;49.020;8.644;2024-03-22T12:25:00;99391.31;;;16.93;55.33
40574;BME280;26283;49.020;8.644;2024-03-22T12:27:25;99380.16;;;16.95;55.36
40574;BME280;26283;49.020;8.644;2024-03-22T12:29:50;99382.06;;;16.94;55.35
40574;BME280;26283;49.020;8.644;2024-03-22T12:32:16;99371.19;;;16.94;55.37
40574;BME280;26283;49.020;8.644;2024-03-22T12:34:41;99370.94;;;16.96;55.39
40574;BME280;26283;49.020;8.644;2024-03-22T12:37:07;99369.03;;;16.96;55.41
40574;BME280;26283;49.020;8.644;2024-03-22T12:39:32;99366.06;;;16.98;55.42
40574;BME280;26283;49.020;8.644;2024-03-22T12:41:58;99358.69;;;16.98;55.44
40574;BME280;26283;49.020;8.644;2024-03-22T12:44:23;99362.50;;;16.97;55.42
40574;BME280;26283;49.020;8.644;2024-03-22T12:46:49;99363.06;;;16.99;55.43
40574;BME280;26283;49.020;8.644;2024-03-22T12:49:16;99363.06;;;16.99;55.43
40574;BME280;26283;49.020;8.644;2024-03-22T12:51:43;99351.91;;;17.01;55.43
40574;BME280;26283;49.020;8.644;2024-03-22T12:54:08;99352.75;;;17.01;55.43